Startpagina
METAR-TAF:

METAR-TAF

Vliegvelden :

Luchthaven Doesjanbe

Doesjanbe, Tadzjikistan

breedte: 38-33N, lengte: 068-47E, hoogte: 803 m

Actueel weer

Dit bericht is 23 minuten geleden gemaakt, om 05:30 UTC
Wind 2 kt uit variabele richting
Temperatuur 26°C
Vochtigheid 26%
Druk 1018 hPa
Zicht 10 km of meer

METAR: UTDD 190530Z VRB01MPS 9999 NSC 26/05 Q1018 R09/D NOSIG RMK QFE695/0927

Tijdstip: 10:53 (05:53 UTC)

Verwachting

Dit bericht is 2 uur en het 53 minuten geleden gemaakt, om 03:00 UTC
Verwachting geldig van 19 om 04 UTC tot 19 om 16 UTC
Wind 4 kt uit variabele richting
Zicht: 6000 m
Weinig wolken op 6600 ft, Cumulonimbus.
Verspreide wolken op 11000 ft
Tijdelijke
van 19 om 05 UTC tot 19 om 16 UTC
Wind 14 kt uit het westen
Kans 40% :
Tijdelijke
van 19 om 05 UTC tot 19 om 16 UTC
onweer

TAF: UTDD 190300Z 1904/1916 VRB02MPS 6000 FEW066CB SCT110 TEMPO 1905/1916 27007MPS PROB40 TEMPO 1905/1916 TS

Waarnemingen en weersverwachtingen van meer dan 4000 vliegvelden (METAR en TAF).

De beschikbare stations zijn de gele en rode punten op de kaart.

Ga met uw muis naar het station om de naam te zien.

Klik dan om waarnemingen en weersverwachtingen te zien.

kaart wijzigen: klik op de groene knoppen met een zwart kruis om in te zoomen, op de groene knop met een streepje om uit te zoomen of op de groene pijlen voor aangrenzende kaarten.


METAR-TAF: